Wilmington, North Carolina
Current Conditions -  °F | °C
As of 6:00 PM on Saturday 20 Dec 2014 (Local Time) from KILM Reporting Station
Overcast Overcast  
Wind Chill: 37°   Ceiling: 7000
Heat Index: 42°   Visibility: 9mi
Dew Point: 40°   Wind: 8mph
Humidity: 92%   Direction: 30°NNE
Pressure: 30.25"   Gusts: NA
Location:  34.24°N, 77.94°W
Report Text: KILM 202300Z 03007KT 9SM BKN070 OVC110 06/04 A3025 RMK AO2 T00560044
Loading
Personal Weather Stations






























Interactive Weather Map New forecast layout! Learn more

10-Day Weather Forecast

Advertisements
Track Severe Weather on mobile